Time;durP1;ratioP1;P1;durP2;ratioP2;P2;SDS_P1;SDS_P2;PMS_P1;PMS_P2;Temp;Humidity;BMP_temperature;BMP_pressure;BME280_temperature;BME280_humidity;BME280_pressure;Samples;Min_cycle;Max_cycle;Signal;HPM_P1;HPM_P2
2022/05/20 00:00:46;;;;;;;8.02;5.30;;;13.60;99.90;;;;;;5016290;28;20064;-77
2022/05/20 00:03:13;;;;;;;7.35;4.65;;;13.60;99.90;;;;;;5033957;28;20132;-77
2022/05/20 00:05:40;;;;;;;6.40;5.03;;;13.60;99.90;;;;;;5032587;28;20469;-75
2022/05/20 00:08:09;;;;;;;13.48;5.90;;;13.70;99.90;;;;;;5033525;28;20123;-75
2022/05/20 00:10:36;;;;;;;8.90;5.20;;;13.70;99.90;;;;;;5015909;28;20197;-76
2022/05/20 00:13:04;;;;;;;9.48;6.07;;;13.60;99.90;;;;;;5015313;28;20042;-76
2022/05/20 00:15:32;;;;;;;8.38;5.80;;;13.60;99.90;;;;;;5016107;28;20136;-76
2022/05/20 00:17:59;;;;;;;9.00;5.57;;;13.70;99.90;;;;;;5015981;28;20412;-76
2022/05/20 00:20:27;;;;;;;9.23;6.32;;;13.70;99.90;;;;;;5015080;28;20132;-77
2022/05/20 00:22:54;;;;;;;10.70;6.10;;;13.60;99.90;;;;;;5032708;28;20049;-76
2022/05/20 00:28:08;;;;;;;9.45;6.22;;;13.60;99.90;;;;;;5033671;28;20049;-76
2022/05/20 00:30:36;;;;;;;10.02;6.85;;;13.50;99.90;;;;;;5033485;28;20092;-76
2022/05/20 00:33:02;;;;;;;8.38;6.47;;;13.50;99.90;;;;;;5014524;28;20527;-76
2022/05/20 00:35:29;;;;;;;10.70;7.32;;;13.40;99.90;;;;;;5033394;28;20046;-76
2022/05/20 00:37:57;;;;;;;12.55;7.68;;;13.40;99.90;;;;;;5015782;28;20156;-76
2022/05/20 00:40:28;;;;;;;12.40;7.55;;;13.20;99.90;;;;;;5032363;28;20079;-76
2022/05/20 00:43:09;;;;;;;14.02;8.65;;;13.20;99.90;;;;;;5032872;28;20504;-75
2022/05/20 00:45:36;;;;;;;12.35;7.72;;;13.10;99.90;;;;;;5015025;28;20046;-75
2022/05/20 00:48:04;;;;;;;10.63;7.13;;;13.00;99.90;;;;;;5015309;28;20086;-75
2022/05/20 00:50:31;;;;;;;11.10;7.60;;;13.00;99.90;;;;;;5033482;28;20145;-76
2022/05/20 00:52:59;;;;;;;10.48;7.75;;;12.90;99.90;;;;;;5033309;28;20124;-76
2022/05/20 00:55:28;;;;;;;9.95;7.70;;;12.80;99.90;;;;;;5016708;28;20151;-76
2022/05/20 00:58:00;;;;;;;14.23;8.88;;;12.80;99.90;;;;;;5016992;28;20088;-76
2022/05/20 01:00:30;;;;;;;11.18;8.95;;;12.70;99.90;;;;;;5018093;28;20057;-75
2022/05/20 01:03:01;;;;;;;16.85;9.85;;;12.60;99.90;;;;;;5017203;28;20132;-76
2022/05/20 01:05:32;;;;;;;14.93;9.32;;;12.60;99.90;;;;;;5015394;28;20087;-76
2022/05/20 01:08:00;;;;;;;16.10;10.85;;;12.50;99.90;;;;;;5014880;28;20140;-77
2022/05/20 01:10:28;;;;;;;16.58;10.57;;;12.40;99.90;;;;;;5015274;28;20054;-76
2022/05/20 01:12:58;;;;;;;18.23;10.85;;;12.30;99.90;;;;;;5032327;28;20418;-76
2022/05/20 01:15:25;;;;;;;17.00;9.63;;;12.30;99.90;;;;;;5014277;28;20564;-76
2022/05/20 01:17:54;;;;;;;13.55;10.07;;;12.20;99.90;;;;;;5015390;28;20103;-76
2022/05/20 01:20:24;;;;;;;12.68;9.65;;;12.20;99.90;;;;;;5015054;28;20132;-77
2022/05/20 01:23:02;;;;;;;17.58;11.18;;;12.10;99.90;;;;;;5014468;28;20140;-76
2022/05/20 01:25:30;;;;;;;12.48;9.43;;;12.10;99.90;;;;;;5015066;28;20501;-75
2022/05/20 01:27:57;;;;;;;15.85;10.43;;;12.00;99.90;;;;;;5015039;28;20556;-75
2022/05/20 01:30:30;;;;;;;13.98;10.00;;;12.00;99.90;;;;;;5031980;28;20107;-75
2022/05/20 01:32:59;;;;;;;15.65;10.80;;;12.00;99.90;;;;;;5015397;28;20085;-75
2022/05/20 01:35:32;;;;;;;14.73;10.15;;;11.90;99.90;;;;;;5036301;28;20096;-75
2022/05/20 01:37:59;;;;;;;15.30;10.23;;;11.90;99.90;;;;;;5018295;28;20164;-75
2022/05/20 01:40:32;;;;;;;15.00;11.02;;;11.90;99.90;;;;;;5036365;28;20486;-76
2022/05/20 01:43:05;;;;;;;17.05;10.80;;;11.90;99.90;;;;;;5036089;28;20140;-75
2022/05/20 01:45:36;;;;;;;14.63;11.32;;;11.90;99.90;;;;;;5019074;28;20477;-75
2022/05/20 01:48:11;;;;;;;15.80;11.25;;;11.90;99.90;;;;;;5036564;28;20089;-74
2022/05/20 01:50:43;;;;;;;15.48;10.90;;;12.00;99.90;;;;;;5017847;28;20085;-76
2022/05/20 01:53:16;;;;;;;18.30;11.48;;;12.00;99.90;;;;;;5035955;28;20493;-77
2022/05/20 01:55:50;;;;;;;23.20;11.98;;;12.00;99.90;;;;;;5018516;28;20135;-75
2022/05/20 01:58:22;;;;;;;18.55;11.90;;;11.90;99.90;;;;;;5035689;28;20501;-75
2022/05/20 02:00:53;;;;;;;18.00;11.55;;;11.90;99.90;;;;;;5036223;28;20141;-74
2022/05/20 02:03:25;;;;;;;19.60;12.15;;;12.00;99.90;;;;;;5035474;28;20107;-76
2022/05/20 02:05:56;;;;;;;19.33;11.88;;;11.90;99.90;;;;;;5018602;28;20087;-75
2022/05/20 02:08:25;;;;;;;;;;;12.00;99.90;;;;;;5019608;28;20481;-75
2022/05/20 02:10:58;;;;;;;18.88;12.82;;;11.90;99.90;;;;;;5018676;28;19925;-75
2022/05/20 02:13:28;;;;;;;16.80;11.80;;;11.90;99.90;;;;;;5036053;28;20135;-76
2022/05/20 02:16:01;;;;;;;17.88;12.07;;;11.90;99.90;;;;;;5036992;28;20132;-76
2022/05/20 02:18:31;;;;;;;21.08;12.40;;;11.90;99.90;;;;;;5035918;28;20052;-76
2022/05/20 02:21:05;;;;;;;20.73;12.98;;;11.80;99.90;;;;;;5036282;28;20528;-75
2022/05/20 02:23:37;;;;;;;17.92;12.80;;;11.80;99.90;;;;;;5017682;28;20585;-75
2022/05/20 02:26:09;;;;;;;20.08;12.23;;;11.70;99.90;;;;;;5017118;28;20068;-76
2022/05/20 02:28:39;;;;;;;19.63;12.73;;;11.70;99.90;;;;;;5018185;28;20078;-74
2022/05/20 02:31:11;;;;;;;16.58;11.75;;;11.60;99.90;;;;;;5017046;28;20049;-74
2022/05/20 02:33:39;;;;;;;16.17;11.60;;;11.50;99.90;;;;;;5017191;28;20073;-75
2022/05/20 02:36:09;;;;;;;16.60;11.13;;;11.50;99.90;;;;;;5035385;28;20089;-76
2022/05/20 02:38:36;;;;;;;24.27;11.57;;;11.50;99.90;;;;;;5035481;28;20053;-75
2022/05/20 02:41:05;;;;;;;20.40;12.82;;;11.40;99.90;;;;;;5017256;28;20100;-74
2022/05/20 02:43:32;;;;;;;17.50;12.20;;;11.40;99.90;;;;;;5035058;28;20045;-75
2022/05/20 02:45:59;;;;;;;18.95;12.65;;;11.40;99.90;;;;;;5016322;28;20065;-76
2022/05/20 02:48:26;;;;;;;19.33;12.63;;;11.40;99.90;;;;;;5034702;28;20080;-76
2022/05/20 02:50:53;;;;;;;21.17;12.13;;;11.40;99.90;;;;;;5017719;28;20140;-76
2022/05/20 02:53:20;;;;;;;16.63;12.10;;;11.40;99.90;;;;;;5034532;28;20099;-76
2022/05/20 02:55:47;;;;;;;16.45;12.40;;;11.30;99.90;;;;;;5017737;28;20054;-75
2022/05/20 03:06:25;;;;;;;18.50;11.85;;;11.30;99.90;;;;;;5017213;28;20073;-76
2022/05/20 03:08:52;;;;;;;17.20;12.73;;;11.30;99.90;;;;;;5016898;28;20100;-76
2022/05/20 03:11:20;;;;;;;17.08;13.38;;;11.30;99.90;;;;;;5034774;28;20497;-76
2022/05/20 03:13:48;;;;;;;21.80;14.45;;;11.60;99.90;;;;;;5016550;28;20053;-75
2022/05/20 03:16:15;;;;;;;30.55;13.77;;;11.20;99.90;;;;;;5034297;28;20061;-75
2022/05/20 03:18:42;;;;;;;17.83;12.85;;;11.10;99.90;;;;;;5034825;28;20097;-76
2022/05/20 03:21:08;;;;;;;25.27;13.45;;;11.10;99.90;;;;;;5016497;28;20093;-75
2022/05/20 03:23:35;;;;;;;22.52;14.05;;;11.10;99.90;;;;;;5016144;28;20442;-75
2022/05/20 03:26:03;;;;;;;21.25;13.35;;;11.00;99.90;;;;;;5016242;28;20095;-75
2022/05/20 03:28:30;;;;;;;20.42;13.32;;;11.00;99.90;;;;;;5033522;28;20057;-75
2022/05/20 03:31:06;;;;;;;18.48;13.63;;;11.00;99.90;;;;;;5012935;28;20497;-76
2022/05/20 03:33:33;;;;;;;21.50;14.55;;;11.00;99.90;;;;;;5013564;28;20505;-75
2022/05/20 03:36:00;;;;;;;21.52;15.20;;;10.90;99.90;;;;;;5014165;28;20089;-75
2022/05/20 03:38:27;;;;;;;18.83;13.18;;;10.90;99.90;;;;;;5015331;28;20084;-75
2022/05/20 03:40:54;;;;;;;25.70;14.20;;;10.90;99.90;;;;;;5013102;28;20053;-74
2022/05/20 03:43:21;;;;;;;23.60;14.35;;;10.90;99.90;;;;;;5012616;28;20119;-75
2022/05/20 03:45:47;;;;;;;19.10;14.25;;;10.90;99.90;;;;;;5013267;28;20050;-75
2022/05/20 03:48:16;;;;;;;19.95;14.52;;;10.90;99.90;;;;;;5013152;28;20061;-75
2022/05/20 03:50:42;;;;;;;19.50;15.23;;;10.80;99.90;;;;;;5013865;28;20045;-75
2022/05/20 03:53:09;;;;;;;19.83;14.57;;;10.80;99.90;;;;;;5014090;28;20449;-77
2022/05/20 03:55:36;;;;;;;23.15;14.85;;;10.80;99.90;;;;;;5012972;28;20502;-77
2022/05/20 03:58:04;;;;;;;20.15;15.00;;;10.80;99.90;;;;;;5011711;28;20085;-75
2022/05/20 04:00:31;;;;;;;24.17;15.40;;;10.80;99.90;;;;;;5012874;28;20081;-74
2022/05/20 04:02:57;;;;;;;22.23;15.23;;;10.80;99.90;;;;;;5012408;28;20496;-75
2022/05/20 04:05:25;;;;;;;23.30;16.63;;;10.80;99.90;;;;;;5011981;28;20081;-74
2022/05/20 04:07:52;;;;;;;28.15;17.10;;;10.80;99.90;;;;;;4993200;28;20046;-75
2022/05/20 04:10:18;;;;;;;24.92;15.60;;;10.90;99.90;;;;;;4992731;28;20109;-75
2022/05/20 04:12:45;;;;;;;23.17;16.55;;;10.90;99.90;;;;;;4993868;28;20466;-74
2022/05/20 04:15:15;;;;;;;22.27;15.43;;;11.00;99.90;;;;;;4992930;28;20097;-75
2022/05/20 04:17:42;;;;;;;20.42;15.23;;;11.00;99.90;;;;;;4994135;28;20487;-73
2022/05/20 04:20:10;;;;;;;24.80;16.20;;;11.10;99.90;;;;;;5002199;28;20073;-74
2022/05/20 04:22:39;;;;;;;21.85;15.98;;;11.10;99.90;;;;;;5012644;28;20046;-74
2022/05/20 04:25:07;;;;;;;23.30;15.68;;;11.10;99.90;;;;;;5013296;28;20798;-76
2022/05/20 04:27:33;;;;;;;24.58;16.80;;;11.20;99.90;;;;;;5013942;28;20061;-76
2022/05/20 04:30:00;;;;;;;18.20;11.43;;;11.20;99.90;;;;;;5021024;28;20057;-75
2022/05/20 04:32:27;;;;;;;14.68;10.27;;;11.30;99.90;;;;;;5012916;28;20048;-74
2022/05/20 04:34:54;;;;;;;17.05;12.82;;;11.90;99.90;;;;;;5004840;28;20049;-74
2022/05/20 04:37:23;;;;;;;21.60;12.75;;;12.10;99.90;;;;;;5004550;28;20080;-75
2022/05/20 04:39:51;;;;;;;14.82;9.57;;;12.30;99.90;;;;;;5009041;28;20057;-75
2022/05/20 04:47:46;;;;;;;17.95;11.63;;;13.10;99.90;;;;;;5025589;28;20048;-75
2022/05/20 04:50:14;;;;;;;17.02;12.93;;;13.10;99.90;;;;;;5010818;28;20050;-74
2022/05/20 04:52:40;;;;;;;16.95;10.20;;;13.00;99.90;;;;;;5008217;28;20126;-74
2022/05/20 04:55:09;;;;;;;12.25;9.95;;;13.10;99.90;;;;;;5024108;28;20088;-75
2022/05/20 04:57:38;;;;;;;17.80;12.02;;;13.40;99.90;;;;;;5005937;28;20128;-74
2022/05/20 05:00:09;;;;;;;13.52;9.48;;;13.50;99.90;;;;;;5010756;28;20045;-74
2022/05/20 05:02:36;;;;;;;14.98;8.98;;;13.60;99.90;;;;;;5024086;28;20045;-75
2022/05/20 05:05:04;;;;;;;22.25;13.70;;;13.60;99.90;;;;;;5006001;28;20049;-75
2022/05/20 05:07:31;;;;;;;14.98;11.00;;;13.60;99.90;;;;;;5004481;28;20045;-75
2022/05/20 05:10:00;;;;;;;14.48;10.85;;;13.60;99.90;;;;;;5028034;28;20049;-75
2022/05/20 05:12:30;;;;;;;14.43;11.10;;;13.70;99.90;;;;;;5006790;28;20188;-75
2022/05/20 05:14:57;;;;;;;14.68;9.95;;;14.10;99.90;;;;;;5028485;28;20049;-75
2022/05/20 05:20:13;;;;;;;14.85;10.13;;;14.10;99.90;;;;;;5005959;28;20072;-75
2022/05/20 05:22:40;;;;;;;16.48;12.73;;;14.20;99.90;;;;;;5005243;28;20049;-75
2022/05/20 05:25:08;;;;;;;13.13;11.32;;;14.30;99.90;;;;;;5024254;28;20042;-74
2022/05/20 05:27:36;;;;;;;13.70;10.57;;;14.40;99.90;;;;;;5006122;28;20570;-74
2022/05/20 05:30:04;;;;;;;14.15;11.93;;;14.50;99.90;;;;;;5020149;28;20297;-75
2022/05/20 05:32:31;;;;;;;15.82;12.40;;;14.50;99.90;;;;;;5017853;28;20062;-76
2022/05/20 05:34:58;;;;;;;15.38;11.25;;;14.40;99.90;;;;;;5015410;28;20407;-75
2022/05/20 05:37:25;;;;;;;16.13;12.30;;;14.40;99.90;;;;;;5011044;28;20123;-75
2022/05/20 05:39:52;;;;;;;14.55;11.68;;;14.50;99.90;;;;;;5007232;28;20053;-76
2022/05/20 05:42:20;;;;;;;16.45;11.88;;;14.70;99.90;;;;;;5006501;28;20124;-76
2022/05/20 05:44:48;;;;;;;17.00;11.35;;;14.70;99.90;;;;;;5007295;28;20057;-75
2022/05/20 05:47:15;;;;;;;16.65;11.88;;;14.80;99.90;;;;;;5005039;28;20081;-74
2022/05/20 05:49:42;;;;;;;17.70;10.82;;;14.90;99.90;;;;;;5024717;28;20049;-75
2022/05/20 05:52:09;;;;;;;13.95;10.82;;;15.00;99.90;;;;;;5006775;28;20077;-75
2022/05/20 05:54:36;;;;;;;12.32;9.43;;;15.20;99.90;;;;;;5007416;28;20092;-74
2022/05/20 05:57:04;;;;;;;13.57;10.05;;;15.50;99.90;;;;;;5023606;28;20053;-73
2022/05/20 05:59:31;;;;;;;16.08;8.95;;;15.90;99.90;;;;;;5023439;28;20099;-74
2022/05/20 06:02:00;;;;;;;14.82;9.70;;;16.40;99.90;;;;;;4998115;28;20417;-76
2022/05/20 06:04:28;;;;;;;11.65;9.18;;;16.70;99.90;;;;;;5024192;28;20686;-76
2022/05/20 06:06:55;;;;;;;13.13;9.10;;;16.90;99.90;;;;;;5009010;28;20080;-74
2022/05/20 06:09:23;;;;;;;12.00;9.25;;;17.10;99.90;;;;;;5003237;28;20081;-76
2022/05/20 06:11:50;;;;;;;14.80;9.00;;;17.20;99.90;;;;;;5021929;28;20502;-75
2022/05/20 06:14:18;;;;;;;13.10;9.38;;;17.30;99.90;;;;;;5004759;28;20524;-74
2022/05/20 06:16:45;;;;;;;12.80;9.23;;;17.40;99.90;;;;;;5009782;28;20049;-76
2022/05/20 06:19:13;;;;;;;11.07;8.00;;;17.60;99.90;;;;;;5006134;28;20128;-75
2022/05/20 06:21:41;;;;;;;12.50;7.70;;;17.70;99.90;;;;;;5009092;28;20053;-75
2022/05/20 06:24:09;;;;;;;13.38;7.22;;;17.80;99.90;;;;;;5010651;28;20048;-75
2022/05/20 06:26:36;;;;;;;10.55;7.38;;;17.70;99.90;;;;;;5010982;28;20041;-74
2022/05/20 06:29:03;;;;;;;10.77;7.43;;;17.90;99.90;;;;;;5026917;28;20077;-76
2022/05/20 06:31:30;;;;;;;8.75;6.78;;;18.30;99.90;;;;;;4997184;28;20050;-76
2022/05/20 06:33:58;;;;;;;11.70;7.78;;;18.40;99.90;;;;;;5001916;28;20084;-75
2022/05/20 06:41:55;;;;;;;10.73;6.60;;;19.20;99.90;;;;;;5014019;28;20053;-78
2022/05/20 06:44:22;;;;;;;7.75;5.75;;;19.00;99.90;;;;;;5007095;28;20076;-76
2022/05/20 06:46:49;;;;;;;10.32;6.47;;;18.70;99.90;;;;;;5005464;28;20414;-76
2022/05/20 06:49:16;;;;;;;7.82;6.13;;;18.70;99.90;;;;;;5023610;28;20053;-77
2022/05/20 06:51:44;;;;;;;7.68;5.40;;;18.80;99.90;;;;;;5000800;28;20084;-75
2022/05/20 06:54:12;;;;;;;8.52;6.80;;;18.60;99.90;;;;;;5001056;28;20485;-77
2022/05/20 06:56:41;;;;;;;8.60;4.60;;;18.40;99.90;;;;;;5000786;28;20050;-77
2022/05/20 06:59:09;;;;;;;7.55;4.95;;;18.40;99.90;;;;;;5019221;28;20096;-76
2022/05/20 07:01:37;;;;;;;7.13;4.35;;;18.20;99.90;;;;;;5000064;28;20054;-76
2022/05/20 07:04:04;;;;;;;8.00;4.25;;;18.30;99.90;;;;;;5016288;28;20081;-76
2022/05/20 07:06:32;;;;;;;7.20;3.83;;;18.50;99.90;;;;;;4997159;28;20073;-76
2022/05/20 07:09:00;;;;;;;8.38;5.45;;;18.50;99.90;;;;;;5014268;28;20517;-76
2022/05/20 07:11:27;;;;;;;10.52;4.63;;;18.50;99.90;;;;;;5015146;28;20046;-76
2022/05/20 07:13:56;;;;;;;6.47;4.75;;;18.80;99.90;;;;;;4996629;28;20104;-78
2022/05/20 07:16:24;;;;;;;9.18;5.30;;;19.40;99.90;;;;;;4991624;28;20050;-77
2022/05/20 07:18:51;;;;;;;7.15;3.65;;;20.00;99.90;;;;;;4996249;28;20107;-77
2022/05/20 07:21:18;;;;;;;16.35;4.93;;;20.40;99.90;;;;;;4996843;28;20062;-77
2022/05/20 07:23:45;;;;;;;8.40;3.65;;;21.10;99.90;;;;;;4997166;28;20567;-78
2022/05/20 07:26:16;;;;;;;6.68;3.95;;;21.50;99.90;;;;;;4997502;28;20085;-76
2022/05/20 07:28:43;;;;;;;8.88;4.25;;;22.10;99.90;;;;;;4997016;28;20061;-76
2022/05/20 07:31:10;;;;;;;9.32;3.83;;;22.10;99.90;;;;;;5033842;28;20505;-77
2022/05/20 07:33:38;;;;;;;7.88;4.47;;;21.80;99.90;;;;;;5016005;28;20122;-76
2022/05/20 07:36:06;;;;;;;6.50;3.80;;;21.70;99.90;;;;;;5016010;28;20405;-77
2022/05/20 07:38:33;;;;;;;8.90;3.88;;;21.80;99.90;;;;;;5016464;28;20486;-77
2022/05/20 07:41:00;;;;;;;9.95;3.85;;;22.10;99.90;;;;;;5034047;28;20061;-78
2022/05/20 07:43:29;;;;;;;6.70;3.92;;;22.20;99.90;;;;;;5014431;28;20042;-76
2022/05/20 07:45:56;;;;;;;6.28;3.60;;;21.80;99.90;;;;;;5016155;28;20069;-78
2022/05/20 07:48:23;;;;;;;5.97;3.63;;;21.40;99.90;;;;;;5016157;28;20057;-77
2022/05/20 07:50:54;;;;;;;6.88;4.20;;;20.80;99.90;;;;;;5015032;28;20052;-78
2022/05/20 07:53:31;;;;;;;6.40;4.35;;;20.30;99.90;;;;;;5016285;28;20042;-78
2022/05/20 07:56:02;;;;;;;9.05;3.75;;;20.00;99.90;;;;;;5015345;28;20133;-76
2022/05/20 07:58:32;;;;;;;6.22;4.28;;;19.80;99.90;;;;;;5012262;28;20084;-77
2022/05/20 08:01:00;;;;;;;5.18;3.60;;;19.90;99.90;;;;;;5033117;28;20049;-77
2022/05/20 08:06:13;;;;;;;7.45;4.35;;;20.00;99.90;;;;;;5015586;28;20055;-78
2022/05/20 08:08:40;;;;;;;7.18;3.65;;;20.50;99.90;;;;;;5015678;28;20061;-78
2022/05/20 08:11:07;;;;;;;6.68;3.30;;;21.00;99.90;;;;;;5033344;28;20049;-78
2022/05/20 08:13:36;;;;;;;6.00;2.85;;;21.70;99.90;;;;;;5015604;28;20049;-77
2022/05/20 08:16:03;;;;;;;6.57;3.05;;;22.30;99.60;;;;;;5016060;28;20045;-77
2022/05/20 08:18:30;;;;;;;8.15;3.22;;;22.60;98.50;;;;;;5038698;28;20057;-77
2022/05/20 08:20:58;;;;;;;5.18;3.50;;;22.30;97.50;;;;;;5038911;28;20049;-77
2022/05/20 08:23:26;;;;;;;4.82;3.20;;;22.50;97.20;;;;;;5034202;28;20076;-76
2022/05/20 08:25:53;;;;;;;6.00;3.83;;;22.80;96.80;;;;;;5032855;28;20081;-78
2022/05/20 08:28:20;;;;;;;6.35;2.97;;;23.10;95.70;;;;;;5033288;28;20543;-78
2022/05/20 08:30:48;;;;;;;9.25;3.47;;;23.50;94.50;;;;;;5015307;28;20057;-78
2022/05/20 08:33:15;;;;;;;5.50;2.78;;;23.70;94.30;;;;;;5015475;28;20514;-77
2022/05/20 08:35:42;;;;;;;6.45;2.72;;;24.00;93.00;;;;;;5015240;28;20053;-78
2022/05/20 08:38:09;;;;;;;4.50;2.15;;;23.70;92.10;;;;;;5015304;28;20053;-78
2022/05/20 08:40:41;;;;;;;4.90;1.90;;;23.40;91.10;;;;;;5015349;28;20061;-78
2022/05/20 08:43:09;;;;;;;5.75;2.45;;;22.90;90.80;;;;;;5014734;28;20095;-78
2022/05/20 08:45:35;;;;;;;4.95;2.40;;;22.60;91.10;;;;;;5014336;28;20520;-77
2022/05/20 08:48:05;;;;;;;7.20;2.63;;;22.50;91.30;;;;;;5015584;28;20054;-77
2022/05/20 08:50:37;;;;;;;5.53;2.40;;;22.50;91.20;;;;;;5033060;28;20107;-78
2022/05/20 08:53:07;;;;;;;4.65;2.70;;;22.90;90.80;;;;;;5014775;28;20085;-77
2022/05/20 08:55:33;;;;;;;;;;;23.20;90.60;;;;;;5010872;28;20038;-77
2022/05/20 08:58:03;;;;;;;5.28;2.50;;;23.40;88.90;;;;;;4995866;28;19975;-78
2022/05/20 09:00:31;;;;;;;4.97;2.45;;;23.50;90.70;;;;;;4995975;28;20069;-78
2022/05/20 09:02:58;;;;;;;5.45;2.42;;;23.70;90.30;;;;;;5014978;28;20505;-77
2022/05/20 09:05:31;;;;;;;17.52;2.55;;;23.60;89.70;;;;;;5014662;28;20049;-78
2022/05/20 09:08:04;;;;;;;4.00;2.05;;;23.90;86.10;;;;;;5032587;28;20387;-77
2022/05/20 09:10:43;;;;;;;5.25;1.80;;;24.20;83.90;;;;;;5015556;28;20049;-77
2022/05/20 09:13:14;;;;;;;3.90;2.03;;;24.50;77.70;;;;;;5032948;28;20089;-77
2022/05/20 09:15:44;;;;;;;6.72;2.05;;;24.60;78.30;;;;;;5014351;28;20045;-77
2022/05/20 09:18:17;;;;;;;7.03;2.35;;;24.40;80.50;;;;;;5014951;28;20049;-77
2022/05/20 09:20:48;;;;;;;5.93;2.70;;;24.30;80.90;;;;;;5014829;28;20088;-77
2022/05/20 09:23:20;;;;;;;4.88;2.20;;;24.20;81.50;;;;;;5015079;28;20528;-77
2022/05/20 09:26:00;;;;;;;9.13;2.72;;;24.30;81.90;;;;;;5032372;28;20080;-77
2022/05/20 09:28:33;;;;;;;6.72;2.80;;;23.90;81.20;;;;;;5014594;28;20053;-78
2022/05/20 09:31:12;;;;;;;4.85;2.75;;;23.90;82.10;;;;;;5014791;28;20099;-78
2022/05/20 09:33:39;;;;;;;4.93;2.72;;;23.90;80.70;;;;;;5030892;28;20128;-78
2022/05/20 09:36:08;;;;;;;5.13;2.05;;;23.70;81.80;;;;;;5031887;28;20049;-78
2022/05/20 09:38:40;;;;;;;5.05;2.80;;;23.80;81.70;;;;;;5014834;28;20049;-76
2022/05/20 09:41:16;;;;;;;4.05;2.05;;;23.70;80.10;;;;;;5014555;28;20053;-78
2022/05/20 09:43:45;;;;;;;4.97;1.95;;;23.40;81.20;;;;;;5012753;28;20123;-77
2022/05/20 09:46:29;;;;;;;3.97;2.15;;;23.60;80.20;;;;;;5012377;28;20050;-78
2022/05/20 09:49:04;;;;;;;3.22;2.00;;;23.60;80.20;;;;;;4993508;28;20058;-78
2022/05/20 09:51:39;;;;;;;5.65;2.65;;;23.60;80.10;;;;;;5027125;28;20053;-78
2022/05/20 09:54:21;;;;;;;6.93;2.90;;;23.50;81.30;;;;;;5015449;28;20046;-78
2022/05/20 09:56:57;;;;;;;4.93;2.22;;;23.50;81.20;;;;;;5003065;28;20141;-78
2022/05/20 09:59:44;;;;;;;5.32;2.30;;;23.40;80.80;;;;;;4999957;28;20061;-78
2022/05/20 10:02:18;;;;;;;7.03;2.95;;;23.20;80.80;;;;;;5031123;28;20053;-78
2022/05/20 10:04:54;;;;;;;4.53;2.00;;;22.90;81.80;;;;;;5035087;28;20088;-78
2022/05/20 10:07:34;;;;;;;6.60;2.67;;;22.90;80.60;;;;;;5015143;28;20057;-77
2022/05/20 10:10:08;;;;;;;6.53;2.83;;;22.80;81.60;;;;;;5017632;28;20084;-78
2022/05/20 10:12:36;;;;;;;5.25;2.45;;;22.60;82.70;;;;;;5036048;28;20061;-78
2022/05/20 10:15:12;;;;;;;5.22;2.30;;;22.50;84.30;;;;;;5017765;28;20119;-78
2022/05/20 10:17:53;;;;;;;4.25;2.20;;;22.40;85.20;;;;;;5035574;28;20045;-78
2022/05/20 10:20:27;;;;;;;3.83;2.28;;;22.40;84.60;;;;;;5035438;28;20050;-79
2022/05/20 10:23:03;;;;;;;4.60;2.13;;;22.30;85.20;;;;;;5017836;28;20054;-78
2022/05/20 10:25:36;;;;;;;4.85;2.30;;;22.10;85.40;;;;;;5017653;28;20046;-78
2022/05/20 10:32:34;;;;;;;5.72;3.25;;;22.20;84.90;;;;;;5015493;28;20061;-78
2022/05/20 10:33:59;;;;;;;4.40;2.22;;;22.00;84.40;;;;;;5017329;28;20138;-78
2022/05/20 10:36:33;;;;;;;4.30;2.15;;;22.20;84.60;;;;;;5017536;28;20103;-77
2022/05/20 10:39:16;;;;;;;5.18;2.55;;;22.30;84.20;;;;;;5034559;28;20046;-77
2022/05/20 10:42:01;;;;;;;4.28;2.45;;;22.40;83.80;;;;;;5011089;28;20077;-77
2022/05/20 10:50:28;;;;;;;6.20;2.08;;;22.30;82.20;;;;;;4999163;28;20383;-78
2022/05/20 10:53:04;;;;;;;4.85;2.10;;;22.20;82.60;;;;;;5016155;28;20065;-77
2022/05/20 10:55:44;;;;;;;3.20;1.98;;;22.30;84.50;;;;;;4998554;28;20413;-77
2022/05/20 10:58:42;;;;;;;3.70;1.95;;;22.40;84.90;;;;;;4994325;28;20063;-77
2022/05/20 11:01:18;;;;;;;5.45;2.15;;;22.50;82.40;;;;;;5021036;28;20046;-76
2022/05/20 11:04:23;;;;;;;3.35;1.40;;;22.70;83.60;;;;;;5015696;28;20056;-77
2022/05/20 11:07:12;;;;;;;4.80;2.03;;;22.90;82.80;;;;;;5024994;28;20465;-77
2022/05/20 11:09:51;;;;;;;4.15;2.50;;;23.20;81.70;;;;;;5010938;28;20061;-77
2022/05/20 11:12:25;;;;;;;5.60;2.40;;;23.10;81.70;;;;;;5012747;28;20360;-77
2022/05/20 11:15:13;;;;;;;5.38;3.15;;;22.90;83.90;;;;;;5011924;28;20135;-76
2022/05/20 11:17:51;;;;;;;11.10;2.97;;;22.90;84.50;;;;;;5033998;28;20416;-77
2022/05/20 11:20:33;;;;;;;5.90;2.85;;;22.80;85.50;;;;;;5022920;28;20085;-77
2022/05/20 11:23:26;;;;;;;5.15;3.05;;;22.90;85.50;;;;;;5012482;28;20053;-78
2022/05/20 11:26:19;;;;;;;7.13;3.42;;;23.00;85.70;;;;;;5016036;28;20049;-78
2022/05/20 11:29:28;;;;;;;6.00;2.90;;;23.40;84.20;;;;;;5030257;28;20057;-78
2022/05/20 11:31:57;;;;;;;4.38;2.70;;;23.60;83.20;;;;;;5033612;28;20528;-78
2022/05/20 11:34:43;;;;;;;4.65;2.78;;;23.70;83.20;;;;;;5034254;28;20107;-78
2022/05/20 11:37:31;;;;;;;5.35;3.08;;;23.60;81.20;;;;;;5034200;28;20054;-78
2022/05/20 11:40:27;;;;;;;9.02;3.65;;;23.90;81.80;;;;;;5033146;28;20501;-78
2022/05/20 11:43:12;;;;;;;6.80;3.08;;;23.90;82.20;;;;;;5027926;28;20116;-78
2022/05/20 11:45:47;;;;;;;7.15;3.75;;;24.00;81.70;;;;;;5015263;28;20088;-77
2022/05/20 11:48:25;;;;;;;6.20;3.25;;;24.10;81.60;;;;;;5016297;28;20091;-77
2022/05/20 11:51:28;;;;;;;4.93;2.97;;;24.10;81.00;;;;;;5016596;28;20496;-78
2022/05/20 11:54:02;;;;;;;6.72;2.78;;;24.40;79.70;;;;;;4961985;28;20109;-76
2022/05/20 11:56:36;;;;;;;6.43;3.55;;;24.30;78.90;;;;;;5013987;28;20095;-78
2022/05/20 11:59:09;;;;;;;4.82;3.00;;;24.10;78.90;;;;;;5033961;28;20060;-78
2022/05/20 12:01:38;;;;;;;5.22;2.53;;;24.30;77.10;;;;;;5016287;28;20114;-76
2022/05/20 12:04:08;;;;;;;3.38;2.70;;;24.50;76.60;;;;;;5015617;28;20089;-77
2022/05/20 12:06:41;;;;;;;4.63;3.00;;;24.50;75.70;;;;;;5035182;28;20473;-77
2022/05/20 12:09:29;;;;;;;4.30;2.53;;;24.40;73.30;;;;;;5015664;28;20053;-77
2022/05/20 12:12:24;;;;;;;4.55;2.45;;;24.10;70.80;;;;;;5033999;28;20132;-78
2022/05/20 12:15:23;;;;;;;5.15;2.30;;;24.00;71.40;;;;;;5015665;28;20515;-78
2022/05/20 12:17:53;;;;;;;3.58;2.10;;;23.90;72.40;;;;;;4998361;28;20590;-76
2022/05/20 12:26:26;;;;;;;4.85;2.75;;;23.40;72.60;;;;;;5012934;28;20342;-77
2022/05/20 12:28:53;;;;;;;6.85;3.30;;;23.30;74.90;;;;;;5033510;28;20053;-77
2022/05/20 12:31:38;;;;;;;5.68;3.10;;;23.50;76.30;;;;;;5016800;28;20472;-78
2022/05/20 12:34:10;;;;;;;5.40;2.92;;;23.40;76.60;;;;;;5034974;28;20049;-77
2022/05/20 12:36:39;;;;;;;5.45;2.85;;;23.50;75.90;;;;;;5033029;28;20152;-77
2022/05/20 12:39:41;;;;;;;3.65;2.30;;;23.70;74.20;;;;;;5012345;28;20130;-77
2022/05/20 12:42:21;;;;;;;4.60;3.00;;;24.20;71.60;;;;;;5032804;28;20081;-77
2022/05/20 12:44:48;;;;;;;4.22;2.40;;;24.80;69.00;;;;;;5015291;28;20076;-77
2022/05/20 12:47:23;;;;;;;3.97;2.35;;;25.00;67.80;;;;;;5015327;28;20538;-78
2022/05/20 12:50:01;;;;;;;4.07;3.05;;;24.70;65.00;;;;;;5015533;28;20493;-77
2022/05/20 12:52:30;;;;;;;7.25;3.10;;;24.40;67.00;;;;;;5032422;28;20095;-78
2022/05/20 12:54:59;;;;;;;4.20;3.33;;;24.20;68.50;;;;;;5017071;28;20056;-77
2022/05/20 12:57:28;;;;;;;6.18;3.42;;;24.00;68.40;;;;;;5014861;28;20107;-78
2022/05/20 13:00:00;;;;;;;6.50;3.92;;;24.00;69.80;;;;;;5015160;28;20505;-77
2022/05/20 13:02:32;;;;;;;6.70;4.43;;;23.90;70.20;;;;;;5014697;28;20053;-77
2022/05/20 13:05:04;;;;;;;11.60;4.60;;;23.70;71.70;;;;;;5015320;28;20080;-78
2022/05/20 13:07:33;;;;;;;4.75;4.07;;;23.90;72.20;;;;;;4995385;28;20115;-78
2022/05/20 13:10:20;;;;;;;8.25;4.75;;;23.70;73.20;;;;;;5013709;28;20064;-78
2022/05/20 13:12:50;;;;;;;9.60;5.57;;;23.60;73.40;;;;;;4994731;28;20057;-77
2022/05/20 13:15:19;;;;;;;;;;;23.30;72.50;;;;;;5013562;28;20042;-78
2022/05/20 13:17:52;;;;;;;8.10;5.25;;;23.10;73.50;;;;;;4995941;28;19921;-77
2022/05/20 13:20:21;;;;;;;8.10;4.57;;;22.80;75.00;;;;;;5023891;28;20056;-78
2022/05/20 13:22:52;;;;;;;9.35;5.22;;;22.60;75.30;;;;;;5011547;28;20115;-76
2022/05/20 13:25:20;;;;;;;8.43;5.38;;;22.40;76.00;;;;;;5023328;28;20099;-78
2022/05/20 13:27:49;;;;;;;9.35;4.53;;;22.10;76.70;;;;;;5013930;28;20148;-77
2022/05/20 13:30:19;;;;;;;8.45;5.15;;;21.90;77.60;;;;;;5036262;28;20054;-77
2022/05/20 13:32:46;;;;;;;;;;;21.80;77.50;;;;;;5036878;28;20049;-78
2022/05/20 13:35:13;;;;;;;9.55;3.90;;;21.60;77.70;;;;;;5035452;28;20399;-77
2022/05/20 13:37:45;;;;;;;6.85;3.90;;;21.50;77.30;;;;;;5018508;28;20161;-78
2022/05/20 13:40:15;;;;;;;7.60;4.63;;;21.30;77.60;;;;;;5017935;28;20053;-78
2022/05/20 13:42:49;;;;;;;8.63;4.50;;;21.30;78.10;;;;;;5036059;28;20472;-78